createdAt,value
2023-04-12T00:00:02.674Z,100327.13
2023-04-12T00:02:35.740Z,100355.56
2023-04-12T00:05:10.371Z,100353.84
2023-04-12T00:07:42.903Z,100345.97
2023-04-12T00:10:15.081Z,100322.16
2023-04-12T00:12:47.426Z,100327.59
2023-04-12T00:15:19.534Z,100316.06
2023-04-12T00:17:51.624Z,100307.22
2023-04-12T00:20:24.533Z,100309.03
2023-04-12T00:22:57.696Z,100310.63
2023-04-12T00:25:29.785Z,100307.09
2023-04-12T00:28:01.693Z,100285.16
2023-04-12T00:30:33.792Z,100276.44
2023-04-12T00:33:05.758Z,100259.72
2023-04-12T00:35:37.716Z,100266.81
2023-04-12T00:38:10.985Z,100257.09
2023-04-12T00:40:43.983Z,100243.94
2023-04-12T00:43:18.430Z,100229.06
2023-04-12T00:45:51.188Z,100216.53
2023-04-12T00:48:26.428Z,100222.03
2023-04-12T00:50:58.509Z,100227.22
2023-04-12T00:53:31.391Z,100216.59
2023-04-12T00:56:04.301Z,100214.84
2023-04-12T00:58:36.594Z,100200.88
2023-04-12T01:01:10.587Z,100170.97
2023-04-12T01:03:43.783Z,100177.19
2023-04-12T01:07:03.681Z,100178.00
2023-04-12T01:10:07.859Z,100174.47
2023-04-12T01:13:02.288Z,100159.38
2023-04-12T01:15:45.116Z,100151.44
2023-04-12T01:18:24.460Z,100134.75
2023-04-12T01:21:10.738Z,100130.34
2023-04-12T01:24:15.005Z,100121.44
2023-04-12T01:26:49.693Z,100114.53
2023-04-12T01:29:24.208Z,100103.88
2023-04-12T01:32:04.997Z,100093.28
2023-04-12T01:34:40.446Z,100094.22
2023-04-12T01:37:13.288Z,100086.31
2023-04-12T01:39:45.581Z,100078.47
2023-04-12T01:42:21.101Z,100060.09
2023-04-12T01:44:53.056Z,100062.72
2023-04-12T01:47:25.316Z,100050.38
2023-04-12T01:50:18.973Z,100050.19
2023-04-12T01:53:09.166Z,100015.75
2023-04-12T01:55:47.797Z,100045.19
2023-04-12T01:58:24.914Z,100041.66
2023-04-12T02:00:59.853Z,100027.59
2023-04-12T02:03:33.389Z,100002.91
2023-04-12T02:06:06.813Z,100008.41
2023-04-12T02:08:38.852Z,100006.63
2023-04-12T02:11:11.937Z,99991.78
2023-04-12T02:13:44.577Z,99985.50
2023-04-12T02:16:17.907Z,99980.25
2023-04-12T02:18:52.869Z,99983.59
2023-04-12T02:21:26.368Z,99966.09
2023-04-12T02:23:58.453Z,99955.66
2023-04-12T02:26:30.651Z,99950.47
2023-04-12T02:29:03.227Z,99938.13
2023-04-12T02:31:38.914Z,99944.16
2023-04-12T02:34:10.945Z,99938.91
2023-04-12T02:36:47.828Z,99921.38
2023-04-12T02:39:22.325Z,99917.00
2023-04-12T02:41:54.409Z,99906.50
2023-04-12T02:44:29.550Z,99894.13
2023-04-12T02:47:01.593Z,99891.50
2023-04-12T02:49:33.566Z,99891.56
2023-04-12T02:52:06.135Z,99890.72
2023-04-12T02:54:39.167Z,99881.91
2023-04-12T02:57:11.793Z,99872.28
2023-04-12T02:59:43.943Z,99867.88
2023-04-12T03:02:15.982Z,99843.31
2023-04-12T03:04:51.024Z,99834.50
2023-04-12T03:07:23.044Z,99833.63
2023-04-12T03:09:55.484Z,99831.00
2023-04-12T03:12:28.706Z,99811.75
2023-04-12T03:15:01.136Z,99802.97
2023-04-12T03:17:33.126Z,99809.06
2023-04-12T03:20:10.287Z,99804.75
2023-04-12T03:22:42.351Z,99806.50
2023-04-12T03:25:14.314Z,99796.78
2023-04-12T03:27:46.872Z,99799.50
2023-04-12T03:30:21.388Z,99792.47
2023-04-12T03:32:53.433Z,99788.91
2023-04-12T03:35:25.482Z,99778.41
2023-04-12T03:37:57.453Z,99781.81
2023-04-12T03:40:29.386Z,99783.56
2023-04-12T03:43:02.120Z,99774.84
2023-04-12T03:45:34.329Z,99766.97
2023-04-12T03:48:06.551Z,99769.59
2023-04-12T03:50:44.355Z,99751.97
2023-04-12T03:53:16.402Z,99760.84
2023-04-12T03:55:48.356Z,99744.16
2023-04-12T03:58:20.911Z,99746.72
2023-04-12T04:00:53.221Z,99739.72
2023-04-12T04:03:30.800Z,99742.34
2023-04-12T04:06:03.048Z,99731.03
2023-04-12T04:08:35.201Z,99723.09
2023-04-12T04:11:09.022Z,99728.28
2023-04-12T04:13:41.100Z,99715.13
2023-04-12T04:16:13.216Z,99713.41
2023-04-12T04:18:45.395Z,99705.53
2023-04-12T04:21:17.458Z,99706.47
2023-04-12T04:23:51.933Z,99698.56
2023-04-12T04:26:32.319Z,99697.63
2023-04-12T04:29:05.216Z,99667.72
2023-04-12T04:31:37.809Z,99685.44
2023-04-12T04:34:12.321Z,99692.47
2023-04-12T04:36:44.977Z,99683.66
2023-04-12T04:39:17.266Z,99691.47
2023-04-12T04:41:54.748Z,99656.28
2023-04-12T04:44:27.076Z,99672.16
2023-04-12T04:47:00.817Z,99666.97
2023-04-12T04:49:33.876Z,99673.91
2023-04-12T04:52:07.247Z,99666.88
2023-04-12T04:54:40.106Z,99675.63
2023-04-12T04:57:12.264Z,99666.00
2023-04-12T04:59:44.158Z,99667.72
2023-04-12T05:02:16.911Z,99659.00
2023-04-12T05:04:48.903Z,99656.63
2023-04-12T05:07:20.838Z,99654.75
2023-04-12T05:09:52.839Z,99625.63
2023-04-12T05:12:24.734Z,99650.41
2023-04-12T05:15:10.709Z,99652.19
2023-04-12T05:17:43.894Z,99653.97
2023-04-12T05:20:15.797Z,99645.16
2023-04-12T05:22:47.835Z,99636.44
2023-04-12T05:25:20.981Z,99644.25
2023-04-12T05:27:52.948Z,99648.66
2023-04-12T05:30:25.380Z,99638.13
2023-04-12T05:32:57.348Z,99629.38
2023-04-12T05:35:29.414Z,99625.94
2023-04-12T05:38:01.583Z,99619.75
2023-04-12T05:40:33.560Z,99639.91
2023-04-12T05:43:05.773Z,99645.16
2023-04-12T05:45:37.697Z,99629.41
2023-04-12T05:48:10.197Z,99626.88
2023-04-12T05:50:42.230Z,99631.28
2023-04-12T05:53:14.496Z,99639.09
2023-04-12T05:55:46.509Z,99643.41
2023-04-12T05:58:18.532Z,99645.25
2023-04-12T06:00:51.479Z,99640.03
2023-04-12T06:03:26.720Z,99641.97
2023-04-12T06:05:58.908Z,99635.97
2023-04-12T06:08:31.209Z,99622.03
2023-04-12T06:11:03.193Z,99624.56
2023-04-12T06:13:35.233Z,99628.94
2023-04-12T06:16:07.779Z,99625.47
2023-04-12T06:18:39.803Z,99619.31
2023-04-12T06:21:11.818Z,99614.91
2023-04-12T06:23:43.773Z,99619.22
2023-04-12T06:26:17.872Z,99615.72
2023-04-12T06:28:50.525Z,99623.69
2023-04-12T06:31:22.593Z,99608.81
2023-04-12T06:33:54.585Z,99601.84
2023-04-12T06:36:27.140Z,99605.38
2023-04-12T06:38:59.232Z,99594.94
2023-04-12T06:41:31.445Z,99598.44
2023-04-12T06:44:03.426Z,99599.38
2023-04-12T06:46:35.603Z,99594.19
2023-04-12T06:49:07.585Z,99598.53
2023-04-12T06:51:39.514Z,99543.81
2023-04-12T06:54:12.410Z,99603.75
2023-04-12T06:56:44.429Z,99598.44
2023-04-12T06:59:16.550Z,99607.22
2023-04-12T07:01:48.675Z,99606.31
2023-04-12T07:04:21.251Z,99601.03
2023-04-12T07:06:53.455Z,99608.81
2023-04-12T07:09:25.691Z,99615.81
2023-04-12T07:11:57.758Z,99598.34
2023-04-12T07:14:29.767Z,99610.69
2023-04-12T07:17:02.010Z,99611.56
2023-04-12T07:19:34.039Z,99615.09
2023-04-12T07:22:06.003Z,99609.91
2023-04-12T07:24:37.909Z,99611.72
2023-04-12T07:27:11.117Z,99610.03
2023-04-12T07:29:43.479Z,99614.41
2023-04-12T07:32:15.509Z,99615.34
2023-04-12T07:34:48.672Z,99597.78
2023-04-12T07:37:20.844Z,99617.13
2023-04-12T07:39:52.996Z,99602.22
2023-04-12T07:42:25.092Z,99598.78
2023-04-12T07:44:57.089Z,99602.41
2023-04-12T07:47:29.103Z,99589.31
2023-04-12T07:50:02.034Z,99584.97
2023-04-12T07:52:34.128Z,99588.56
2023-04-12T07:55:06.580Z,99578.03
2023-04-12T07:57:38.657Z,99591.34
2023-04-12T08:00:11.916Z,99594.09
2023-04-12T08:02:44.292Z,99598.44
2023-04-12T08:05:16.467Z,99594.13
2023-04-12T08:07:48.474Z,99594.13
2023-04-12T08:10:20.471Z,99597.59
2023-04-12T08:12:52.565Z,99598.41
2023-04-12T08:15:24.997Z,99594.09
2023-04-12T08:17:57.009Z,99612.59
2023-04-12T08:20:29.202Z,99616.06
2023-04-12T08:23:01.397Z,99616.81
2023-04-12T08:25:34.222Z,99614.19
2023-04-12T08:28:08.200Z,99609.88
2023-04-12T08:30:40.344Z,99604.69
2023-04-12T08:33:12.366Z,99614.44
2023-04-12T08:35:44.294Z,99620.72
2023-04-12T08:38:16.578Z,99618.97
2023-04-12T08:40:48.539Z,99615.47
2023-04-12T08:43:22.853Z,99607.63
2023-04-12T08:45:57.103Z,99606.84
2023-04-12T08:48:29.468Z,99595.56
2023-04-12T08:51:01.698Z,99600.09
2023-04-12T08:53:33.818Z,99596.78
2023-04-12T08:56:11.776Z,99597.72
2023-04-12T08:58:50.898Z,99602.16
2023-04-12T09:01:22.894Z,99601.34
2023-04-12T09:03:55.087Z,99600.47
2023-04-12T09:06:27.444Z,99597.00
2023-04-12T09:09:00.328Z,99595.28
2023-04-12T09:11:32.785Z,99586.50
2023-04-12T09:14:20.035Z,99587.31
2023-04-12T09:16:52.326Z,99587.41
2023-04-12T09:19:36.002Z,99576.09
2023-04-12T09:22:08.183Z,99576.25
2023-04-12T09:24:53.271Z,99564.00
2023-04-12T09:27:28.384Z,99562.31
2023-04-12T09:30:11.227Z,99564.06
2023-04-12T09:32:43.701Z,99566.63
2023-04-12T09:35:15.802Z,99569.38
2023-04-12T09:37:58.500Z,99563.34
2023-04-12T09:40:36.203Z,99570.38
2023-04-12T09:43:08.673Z,99574.78
2023-04-12T09:45:40.821Z,99565.13
2023-04-12T09:48:22.320Z,99562.47
2023-04-12T09:51:00.326Z,99565.13
2023-04-12T09:53:36.368Z,99551.91
2023-04-12T09:56:11.500Z,99551.03
2023-04-12T09:58:45.267Z,99534.34
2023-04-12T10:01:17.784Z,99552.94
2023-04-12T10:03:50.556Z,99538.91
2023-04-12T10:06:22.984Z,99531.03
2023-04-12T10:08:56.437Z,99525.75
2023-04-12T10:11:29.475Z,99540.69
2023-04-12T10:14:03.528Z,99540.66
2023-04-12T10:16:35.960Z,99557.34
2023-04-12T10:19:09.687Z,99557.31
2023-04-12T10:21:42.574Z,99534.25
2023-04-12T10:24:14.824Z,99565.91
2023-04-12T10:26:50.256Z,99556.16
2023-04-12T10:29:32.778Z,99557.00
2023-04-12T10:32:24.549Z,99560.47
2023-04-12T10:34:59.219Z,99557.81
2023-04-12T10:38:04.396Z,99534.84
2023-04-12T10:40:37.323Z,99568.34
2023-04-12T10:43:28.109Z,99570.91
2023-04-12T10:46:04.529Z,99562.94
2023-04-12T10:48:51.972Z,99575.16
2023-04-12T10:51:25.824Z,99583.88
2023-04-12T10:54:18.841Z,99593.28
2023-04-12T10:56:51.037Z,99588.69
2023-04-12T10:59:28.899Z,99599.06
2023-04-12T11:02:12.259Z,99599.84
2023-04-12T11:05:11.189Z,99583.03
2023-04-12T11:07:46.356Z,99594.56
2023-04-12T11:10:21.816Z,99595.53
2023-04-12T11:13:00.643Z,99595.56
2023-04-12T11:15:34.205Z,99565.59
2023-04-12T11:18:07.161Z,99589.50
2023-04-12T11:20:40.940Z,99593.06
2023-04-12T11:23:13.096Z,99600.97
2023-04-12T11:25:53.646Z,99602.72
2023-04-12T11:28:30.531Z,99610.56
2023-04-12T11:31:04.197Z,99601.69
2023-04-12T11:33:40.563Z,99608.66
2023-04-12T11:36:13.288Z,99600.81
2023-04-12T11:38:47.297Z,99593.84
2023-04-12T11:41:19.337Z,99582.50
2023-04-12T11:43:52.643Z,99593.16
2023-04-12T11:46:25.534Z,99591.53
2023-04-12T11:48:58.027Z,99591.66
2023-04-12T11:51:32.804Z,99597.03
2023-04-12T11:54:05.054Z,99590.03
2023-04-12T11:56:37.604Z,99590.09
2023-04-12T11:59:09.636Z,99587.59
2023-04-12T12:01:42.679Z,99578.06
2023-04-12T12:04:15.157Z,99592.16
2023-04-12T12:06:48.451Z,99588.69
2023-04-12T12:09:21.397Z,99581.69
2023-04-12T12:11:55.399Z,99599.25
2023-04-12T12:14:28.145Z,99627.31
2023-04-12T12:17:00.660Z,99628.84
2023-04-12T12:19:37.349Z,99649.50
2023-04-12T12:22:22.956Z,99651.63
2023-04-12T12:25:01.637Z,99656.53
2023-04-12T12:27:35.635Z,99666.78
2023-04-12T12:30:09.669Z,99660.38
2023-04-12T12:32:42.132Z,99662.94
2023-04-12T12:35:15.616Z,99654.16
2023-04-12T12:37:58.718Z,99656.81
2023-04-12T12:40:34.511Z,99642.06
2023-04-12T12:43:09.180Z,99632.44
2023-04-12T12:45:41.751Z,99624.75
2023-04-12T12:48:14.174Z,99620.63
2023-04-12T12:50:47.017Z,99619.25
2023-04-12T12:53:19.028Z,99615.03
2023-04-12T12:55:50.957Z,99609.06
2023-04-12T12:58:22.982Z,99614.50
2023-04-12T13:00:55.768Z,99619.81
2023-04-12T13:03:28.067Z,99626.84
2023-04-12T13:06:00.508Z,99623.31
2023-04-12T13:08:35.372Z,99626.75
2023-04-12T13:11:07.618Z,99626.75
2023-04-12T13:13:39.554Z,99635.47
2023-04-12T13:16:11.672Z,99634.56
2023-04-12T13:18:44.363Z,99637.13
2023-04-12T13:21:16.401Z,99646.72
2023-04-12T13:23:48.360Z,99668.47
2023-04-12T13:26:20.903Z,99698.94
2023-04-12T13:28:52.866Z,99702.81
2023-04-12T13:31:24.873Z,99698.03
2023-04-12T13:33:56.863Z,99666.22
2023-04-12T13:36:28.899Z,99668.84
2023-04-12T13:39:01.009Z,99631.38
2023-04-12T13:41:34.280Z,99620.13
2023-04-12T13:44:06.533Z,99612.38
2023-04-12T13:46:38.563Z,99610.69
2023-04-12T13:49:10.834Z,99615.28
2023-04-12T13:51:42.807Z,99602.25
2023-04-12T13:54:15.960Z,99589.06
2023-04-12T13:56:48.361Z,99589.09
2023-04-12T13:59:20.388Z,99616.53
2023-04-12T14:01:53.164Z,99610.53
2023-04-12T14:04:30.044Z,99614.13
2023-04-12T14:07:02.083Z,99610.81
2023-04-12T14:09:34.139Z,99612.59
2023-04-12T14:12:06.120Z,99610.94
2023-04-12T14:14:38.070Z,99602.19
2023-04-12T14:17:10.041Z,99612.78
2023-04-12T14:19:42.005Z,99617.16
2023-04-12T14:22:13.927Z,99611.09
2023-04-12T14:24:46.382Z,99609.38
2023-04-12T14:27:18.427Z,99606.75
2023-04-12T14:29:50.465Z,99617.22
2023-04-12T14:32:22.778Z,99616.19
2023-04-12T14:34:54.878Z,99645.81
2023-04-12T14:37:27.454Z,99668.44
2023-04-12T14:39:59.457Z,99709.50
2023-04-12T14:42:31.386Z,99712.63
2023-04-12T14:45:05.469Z,99723.50
2023-04-12T14:47:37.412Z,99707.22
2023-04-12T14:50:09.728Z,99692.75
2023-04-12T14:52:41.708Z,99686.44
2023-04-12T14:55:13.766Z,99662.63
2023-04-12T14:57:45.731Z,99679.44
2023-04-12T15:00:18.241Z,99680.34
2023-04-12T15:02:50.470Z,99675.97
2023-04-12T15:05:22.805Z,99664.66
2023-04-12T15:07:54.933Z,99657.78
2023-04-12T15:10:28.297Z,99652.63
2023-04-12T15:13:00.384Z,99661.47
2023-04-12T15:15:32.604Z,99662.47
2023-04-12T15:18:04.710Z,99659.03
2023-04-12T15:20:37.087Z,99658.19
2023-04-12T15:23:09.101Z,99657.38
2023-04-12T15:25:41.353Z,99638.91
2023-04-12T15:28:13.240Z,99653.09
2023-04-12T15:30:45.244Z,99659.28
2023-04-12T15:33:17.264Z,99661.09
2023-04-12T15:35:50.519Z,99650.69
2023-04-12T15:38:24.724Z,99644.66
2023-04-12T15:41:01.988Z,99643.03
2023-04-12T15:43:34.066Z,99640.47
2023-04-12T15:46:06.546Z,99639.91
2023-04-12T15:48:38.859Z,99639.34
2023-04-12T15:51:11.010Z,99599.84
2023-04-12T15:53:43.506Z,99624.78
2023-04-12T15:56:19.947Z,99627.53
2023-04-12T15:58:53.556Z,99627.72
2023-04-12T16:01:25.972Z,99619.00
2023-04-12T16:03:58.138Z,99612.94
2023-04-12T16:06:34.695Z,99600.69
2023-04-12T16:09:06.844Z,99613.94
2023-04-12T16:11:38.927Z,99608.59
2023-04-12T16:14:10.903Z,99617.34
2023-04-12T16:16:43.308Z,99618.16
2023-04-12T16:19:15.347Z,99618.09
2023-04-12T16:21:47.416Z,99618.06
2023-04-12T16:24:19.358Z,99615.44
2023-04-12T16:26:52.145Z,99622.38
2023-04-12T16:29:24.551Z,99614.56
2023-04-12T16:31:56.561Z,99616.38
2023-04-12T16:34:28.565Z,99612.91
2023-04-12T16:37:00.614Z,99602.47
2023-04-12T16:39:34.038Z,99605.16
2023-04-12T16:42:07.524Z,99598.06
2023-04-12T16:44:39.512Z,99603.28
2023-04-12T16:47:11.640Z,99604.19
2023-04-12T16:49:43.704Z,99598.97
2023-04-12T16:52:16.518Z,99592.81
2023-04-12T16:54:48.474Z,99590.16
2023-04-12T16:57:20.607Z,99594.56
2023-04-12T16:59:52.702Z,99600.78
2023-04-12T17:02:25.140Z,99595.50
2023-04-12T17:04:57.290Z,99590.19
2023-04-12T17:07:29.253Z,99583.22
2023-04-12T17:10:01.438Z,99586.72
2023-04-12T17:12:33.406Z,99586.72
2023-04-12T17:15:06.282Z,99577.09
2023-04-12T17:17:38.520Z,99586.81
2023-04-12T17:20:11.627Z,99582.34
2023-04-12T17:22:43.847Z,99576.19
2023-04-12T17:25:17.764Z,99578.81
2023-04-12T17:27:51.175Z,99587.53
2023-04-12T17:30:24.019Z,99576.16
2023-04-12T17:32:56.525Z,99574.38
2023-04-12T17:35:28.930Z,99576.16
2023-04-12T17:38:01.085Z,99577.91
2023-04-12T17:40:33.179Z,99581.41
2023-04-12T17:43:05.390Z,99578.81
2023-04-12T17:45:37.558Z,99573.53
2023-04-12T17:48:11.324Z,99574.34
2023-04-12T17:50:45.318Z,99566.44
2023-04-12T17:53:17.433Z,99567.34
2023-04-12T17:55:50.738Z,99562.06
2023-04-12T17:58:22.870Z,99564.66
2023-04-12T18:00:54.793Z,99562.84
2023-04-12T18:03:27.512Z,99558.44
2023-04-12T18:06:00.801Z,99568.94
2023-04-12T18:08:32.831Z,99562.75
2023-04-12T18:11:06.555Z,99581.16
2023-04-12T18:13:38.517Z,99576.69
2023-04-12T18:16:10.501Z,99567.00
2023-04-12T18:18:42.506Z,99571.34
2023-04-12T18:21:16.162Z,99569.44
2023-04-12T18:23:48.401Z,99566.78
2023-04-12T18:26:21.844Z,99563.22
2023-04-12T18:28:53.969Z,99564.94
2023-04-12T18:31:26.200Z,99563.13
2023-04-12T18:33:58.815Z,99572.69
2023-04-12T18:36:31.689Z,99566.50
2023-04-12T18:39:08.063Z,99545.16
2023-04-12T18:41:43.174Z,99560.13
2023-04-12T18:44:15.556Z,99567.16
2023-04-12T18:46:47.495Z,99566.63
2023-04-12T18:49:19.424Z,99556.72
2023-04-12T18:51:53.249Z,99561.88
2023-04-12T18:54:27.593Z,99564.44
2023-04-12T18:57:01.860Z,99565.25
2023-04-12T18:59:33.886Z,99565.19
2023-04-12T19:02:06.486Z,99569.56
2023-04-12T19:04:41.189Z,99577.41
2023-04-12T19:07:13.089Z,99541.31
2023-04-12T19:09:47.113Z,99563.28
2023-04-12T19:12:19.244Z,99566.78
2023-04-12T19:14:51.169Z,99564.13
2023-04-12T19:17:24.931Z,99561.44
2023-04-12T19:19:57.611Z,99564.88
2023-04-12T19:22:29.542Z,99563.06
2023-04-12T19:25:01.888Z,99577.03
2023-04-12T19:27:33.958Z,99572.59
2023-04-12T19:30:07.232Z,99546.28
2023-04-12T19:32:40.675Z,99566.47
2023-04-12T19:35:14.051Z,99562.03
2023-04-12T19:37:47.231Z,99568.13
2023-04-12T19:40:19.190Z,99573.34
2023-04-12T19:42:51.918Z,99574.09
2023-04-12T19:45:26.237Z,99564.38
2023-04-12T19:47:58.434Z,99546.69
2023-04-12T19:50:31.170Z,99561.59
2023-04-12T19:53:03.817Z,99557.19
2023-04-12T19:55:35.892Z,99548.38
2023-04-12T19:58:08.138Z,99543.88
2023-04-12T20:00:41.349Z,99542.09
2023-04-12T20:03:13.462Z,99536.84
2023-04-12T20:05:46.189Z,99533.34
2023-04-12T20:08:18.267Z,99527.19
2023-04-12T20:10:50.657Z,99516.63
2023-04-12T20:13:22.827Z,99520.06
2023-04-12T20:15:55.343Z,99514.84
2023-04-12T20:18:28.568Z,99523.56
2023-04-12T20:21:00.609Z,99529.66
2023-04-12T20:23:32.561Z,99531.31
2023-04-12T20:26:05.540Z,99530.31
2023-04-12T20:28:38.479Z,99511.78
2023-04-12T20:31:12.817Z,99511.78
2023-04-12T20:33:44.991Z,99513.59
2023-04-12T20:36:17.420Z,99488.81
2023-04-12T20:38:53.856Z,99515.16
2023-04-12T20:41:25.784Z,99502.91
2023-04-12T20:43:59.533Z,99501.09
2023-04-12T20:46:31.525Z,99489.72
2023-04-12T20:49:05.233Z,99495.78
2023-04-12T20:51:37.711Z,99487.84
2023-04-12T20:54:09.686Z,99482.56
2023-04-12T20:56:41.997Z,99471.97
2023-04-12T20:59:14.120Z,99463.97
2023-04-12T21:01:46.974Z,99467.50
2023-04-12T21:04:20.133Z,99462.19
2023-04-12T21:06:55.539Z,99462.25
2023-04-12T21:09:27.890Z,99447.31
2023-04-12T21:12:02.746Z,99456.06
2023-04-12T21:14:37.579Z,99449.94
2023-04-12T21:17:09.669Z,99461.31
2023-04-12T21:19:42.026Z,99449.88
2023-04-12T21:22:14.013Z,99449.84
2023-04-12T21:24:45.981Z,99446.34
2023-04-12T21:27:17.956Z,99442.78
2023-04-12T21:29:50.198Z,99433.19
2023-04-12T21:32:22.254Z,99420.91
2023-04-12T21:34:54.774Z,99420.09
2023-04-12T21:37:26.741Z,99402.56
2023-04-12T21:39:58.705Z,99410.47
2023-04-12T21:42:30.648Z,99407.00
2023-04-12T21:45:03.575Z,99405.22
2023-04-12T21:47:36.891Z,99399.13
2023-04-12T21:50:10.779Z,99393.84
2023-04-12T21:52:44.144Z,99390.34
2023-04-12T21:55:16.119Z,99396.53
2023-04-12T21:57:48.213Z,99390.41
2023-04-12T22:00:20.326Z,99382.53
2023-04-12T22:02:52.452Z,99378.19
2023-04-12T22:05:24.610Z,99368.50
2023-04-12T22:07:57.867Z,99368.56
2023-04-12T22:10:32.450Z,99365.94
2023-04-12T22:13:04.381Z,99358.91
2023-04-12T22:15:37.452Z,99347.50
2023-04-12T22:18:10.817Z,99347.56
2023-04-12T22:20:42.755Z,99343.13
2023-04-12T22:23:18.261Z,99353.59
2023-04-12T22:25:50.713Z,99349.22
2023-04-12T22:28:22.685Z,99342.16
2023-04-12T22:30:57.182Z,99333.50
2023-04-12T22:33:30.085Z,99330.88
2023-04-12T22:36:02.202Z,99306.41
2023-04-12T22:38:38.486Z,99315.13
2023-04-12T22:41:10.446Z,99308.94
2023-04-12T22:43:42.435Z,99311.66
2023-04-12T22:46:18.696Z,99325.59
2023-04-12T22:48:50.777Z,99315.06
2023-04-12T22:51:24.735Z,99320.22
2023-04-12T22:53:57.359Z,99286.91
2023-04-12T22:56:30.227Z,99320.97
2023-04-12T22:59:02.777Z,99311.25
2023-04-12T23:01:34.801Z,99299.78
2023-04-12T23:04:06.862Z,99310.25
2023-04-12T23:06:41.621Z,99311.13
2023-04-12T23:09:13.615Z,99310.25
2023-04-12T23:11:47.373Z,99309.34
2023-04-12T23:14:19.367Z,99292.59
2023-04-12T23:16:51.730Z,99287.25
2023-04-12T23:19:23.874Z,99291.66
2023-04-12T23:21:56.036Z,99301.19
2023-04-12T23:24:28.533Z,99291.56
2023-04-12T23:27:00.440Z,99302.06
2023-04-12T23:29:32.410Z,99300.22
2023-04-12T23:32:04.554Z,99298.38
2023-04-12T23:34:37.152Z,99289.56
2023-04-12T23:37:11.020Z,99293.84
2023-04-12T23:39:43.180Z,99287.69
2023-04-12T23:42:15.102Z,99285.00
2023-04-12T23:44:47.481Z,99288.50
2023-04-12T23:47:19.397Z,99276.28
2023-04-12T23:49:51.735Z,99277.13
2023-04-12T23:52:23.699Z,99235.72
2023-04-12T23:54:55.895Z,99268.31
2023-04-12T23:57:28.122Z,99245.59
